createdAt,value
2023-11-29T00:02:43.375Z,13.15
2023-11-29T00:05:11.681Z,13.50
2023-11-29T00:07:41.891Z,12.90
2023-11-29T00:10:09.315Z,13.20
2023-11-29T00:12:36.621Z,13.57
2023-11-29T00:15:05.122Z,12.48
2023-11-29T00:17:32.384Z,13.13
2023-11-29T00:19:59.673Z,13.38
2023-11-29T00:22:26.847Z,12.93
2023-11-29T00:24:54.057Z,11.65
2023-11-29T00:27:22.302Z,14.63
2023-11-29T00:29:50.066Z,13.45
2023-11-29T00:32:17.373Z,13.48
2023-11-29T00:34:44.601Z,13.45
2023-11-29T00:37:11.805Z,11.20
2023-11-29T00:42:06.033Z,13.65
2023-11-29T00:46:59.940Z,10.60
2023-11-29T00:49:27.171Z,12.18
2023-11-29T00:54:20.977Z,11.52
2023-11-29T00:59:15.020Z,11.73
2023-11-29T01:01:42.191Z,11.05
2023-11-29T01:06:36.041Z,11.85
2023-11-29T01:09:05.372Z,10.70
2023-11-29T01:11:32.618Z,9.85
2023-11-29T01:13:59.833Z,10.07
2023-11-29T01:16:26.950Z,8.45
2023-11-29T01:18:55.069Z,8.85
2023-11-29T01:21:28.923Z,8.40
2023-11-29T01:23:59.478Z,8.13
2023-11-29T01:26:26.688Z,9.68
2023-11-29T01:28:53.878Z,10.23
2023-11-29T01:33:47.669Z,7.85
2023-11-29T01:38:41.997Z,9.68
2023-11-29T01:41:09.219Z,8.55
2023-11-29T01:43:36.415Z,13.18
2023-11-29T01:46:04.419Z,9.57
2023-11-29T01:48:32.185Z,8.32
2023-11-29T01:50:59.745Z,8.15
2023-11-29T01:53:28.729Z,8.18
2023-11-29T01:55:57.529Z,7.43
2023-11-29T01:58:25.161Z,7.35
2023-11-29T02:00:53.014Z,6.65
2023-11-29T02:03:21.658Z,6.40
2023-11-29T02:05:49.297Z,6.57
2023-11-29T02:08:16.600Z,6.95
2023-11-29T02:10:44.996Z,7.65
2023-11-29T02:13:13.057Z,7.63
2023-11-29T02:15:40.430Z,6.82
2023-11-29T02:18:07.778Z,9.15
2023-11-29T02:20:35.105Z,10.23
2023-11-29T02:23:11.860Z,10.90
2023-11-29T02:25:39.018Z,4.63
2023-11-29T02:28:06.208Z,6.60
2023-11-29T02:30:33.602Z,5.35
2023-11-29T02:33:00.837Z,10.23
2023-11-29T02:35:28.076Z,8.30
2023-11-29T02:37:55.264Z,7.72
2023-11-29T02:40:23.623Z,5.45
2023-11-29T02:42:50.752Z,5.72
2023-11-29T02:45:18.098Z,5.95
2023-11-29T02:47:45.306Z,6.75
2023-11-29T02:50:12.631Z,6.38
2023-11-29T02:52:39.836Z,6.18
2023-11-29T02:55:08.147Z,4.10
2023-11-29T02:57:35.272Z,7.47
2023-11-29T03:00:02.384Z,6.63
2023-11-29T03:02:29.693Z,5.72
2023-11-29T03:04:56.892Z,5.63
2023-11-29T03:07:24.065Z,7.25
2023-11-29T03:09:51.166Z,5.93
2023-11-29T03:12:18.405Z,6.32
2023-11-29T03:14:45.614Z,7.95
2023-11-29T03:17:12.834Z,4.35
2023-11-29T03:19:39.944Z,6.28
2023-11-29T03:22:07.416Z,7.90
2023-11-29T03:24:35.229Z,6.50
2023-11-29T03:29:29.110Z,6.10
2023-11-29T03:31:56.380Z,3.22
2023-11-29T03:34:24.101Z,6.82
2023-11-29T03:36:51.260Z,7.07
2023-11-29T03:39:18.448Z,6.32
2023-11-29T03:41:45.675Z,5.60
2023-11-29T03:44:13.704Z,7.40
2023-11-29T03:46:40.858Z,5.70
2023-11-29T03:49:07.997Z,7.07
2023-11-29T03:51:38.482Z,4.65
2023-11-29T03:54:09.399Z,8.65
2023-11-29T03:56:36.681Z,3.30
2023-11-29T03:59:03.895Z,4.68
2023-11-29T04:01:34.505Z,7.00
2023-11-29T04:04:03.267Z,6.82
2023-11-29T04:06:30.731Z,5.80
2023-11-29T04:08:57.932Z,4.47
2023-11-29T04:11:25.644Z,5.50
2023-11-29T04:13:52.829Z,6.93
2023-11-29T04:16:30.598Z,7.10
2023-11-29T04:18:58.349Z,4.85
2023-11-29T04:21:28.337Z,8.15
2023-11-29T04:23:56.237Z,7.75
2023-11-29T04:26:30.205Z,6.88
2023-11-29T04:29:00.233Z,7.97
2023-11-29T04:31:27.647Z,5.40
2023-11-29T04:33:54.856Z,6.53
2023-11-29T04:36:22.031Z,6.80
2023-11-29T04:38:49.437Z,6.75
2023-11-29T04:41:17.685Z,6.88
2023-11-29T04:43:45.333Z,5.30
2023-11-29T04:46:13.013Z,7.35
2023-11-29T04:48:40.420Z,4.53
2023-11-29T04:51:07.899Z,6.70
2023-11-29T04:53:35.080Z,5.90
2023-11-29T04:56:03.783Z,8.23
2023-11-29T04:58:31.171Z,7.65
2023-11-29T05:00:58.311Z,8.88
2023-11-29T05:03:26.047Z,7.90
2023-11-29T05:05:53.346Z,5.15
2023-11-29T05:08:21.181Z,7.82
2023-11-29T05:10:48.371Z,6.68
2023-11-29T05:13:15.513Z,4.78
2023-11-29T05:15:48.880Z,6.50
2023-11-29T05:20:43.157Z,2.35
2023-11-29T05:23:10.384Z,5.95
2023-11-29T05:25:37.562Z,3.67
2023-11-29T05:28:05.091Z,2.13
2023-11-29T05:30:32.209Z,5.43
2023-11-29T05:32:59.433Z,3.67
2023-11-29T05:35:27.575Z,4.05
2023-11-29T05:37:54.745Z,5.82
2023-11-29T05:40:21.981Z,3.10
2023-11-29T05:42:49.225Z,7.00
2023-11-29T05:45:16.400Z,6.55
2023-11-29T05:47:43.691Z,4.28
2023-11-29T05:50:10.922Z,5.97
2023-11-29T05:52:38.150Z,6.90
2023-11-29T05:55:06.510Z,5.22
2023-11-29T05:57:33.711Z,4.45
2023-11-29T06:00:23.298Z,3.58
2023-11-29T06:02:55.645Z,4.35
2023-11-29T06:05:22.842Z,2.97
2023-11-29T06:07:50.124Z,2.72
2023-11-29T06:10:17.281Z,4.25
2023-11-29T06:12:45.711Z,4.95
2023-11-29T06:15:13.984Z,2.60
2023-11-29T06:17:41.747Z,4.25
2023-11-29T06:20:10.748Z,6.88
2023-11-29T06:22:38.108Z,6.10
2023-11-29T06:25:06.134Z,5.50
2023-11-29T06:27:33.397Z,3.38
2023-11-29T06:30:00.997Z,4.10
2023-11-29T06:32:28.229Z,9.85
2023-11-29T06:34:57.581Z,2.55
2023-11-29T06:37:24.793Z,2.90
2023-11-29T06:39:51.970Z,4.38
2023-11-29T06:42:19.200Z,4.30
2023-11-29T06:44:46.398Z,8.02
2023-11-29T06:47:14.923Z,4.40
2023-11-29T06:49:42.128Z,5.97
2023-11-29T06:52:09.728Z,5.20
2023-11-29T06:54:37.344Z,4.88
2023-11-29T06:57:04.500Z,10.82
2023-11-29T06:59:31.709Z,7.55
2023-11-29T07:01:58.948Z,7.95
2023-11-29T07:04:28.675Z,8.23
2023-11-29T07:06:56.820Z,7.80
2023-11-29T07:09:24.073Z,6.75
2023-11-29T07:11:51.287Z,7.97
2023-11-29T07:14:18.512Z,8.95
2023-11-29T07:16:45.650Z,9.15
2023-11-29T07:21:39.389Z,11.73
2023-11-29T07:24:07.099Z,5.65
2023-11-29T07:26:34.317Z,3.80
2023-11-29T07:29:01.445Z,8.13
2023-11-29T07:31:28.599Z,4.88
2023-11-29T07:33:57.907Z,4.82
2023-11-29T07:36:25.093Z,6.55
2023-11-29T07:38:52.353Z,7.78
2023-11-29T07:41:21.758Z,4.63
2023-11-29T07:43:49.053Z,7.78
2023-11-29T07:46:18.419Z,7.55
2023-11-29T07:48:45.697Z,8.35
2023-11-29T07:51:12.867Z,9.43
2023-11-29T07:53:40.078Z,8.98
2023-11-29T07:56:08.654Z,6.80
2023-11-29T07:58:37.210Z,7.07
2023-11-29T08:01:06.740Z,6.57
2023-11-29T08:03:34.054Z,6.18
2023-11-29T08:06:01.216Z,6.97
2023-11-29T08:08:28.408Z,7.45
2023-11-29T08:10:55.558Z,8.23
2023-11-29T08:13:22.672Z,10.32
2023-11-29T08:15:49.826Z,8.65
2023-11-29T08:18:17.006Z,8.65
2023-11-29T08:20:44.202Z,7.18
2023-11-29T08:23:11.414Z,6.95
2023-11-29T08:25:38.546Z,9.10
2023-11-29T08:28:05.699Z,7.00
2023-11-29T08:30:32.916Z,7.63
2023-11-29T08:33:00.370Z,10.60
2023-11-29T08:35:27.573Z,8.00
2023-11-29T08:37:54.933Z,7.38
2023-11-29T08:40:22.117Z,8.60
2023-11-29T08:42:49.384Z,7.95
2023-11-29T08:45:16.881Z,8.13
2023-11-29T08:47:44.162Z,7.78
2023-11-29T08:50:11.321Z,9.70
2023-11-29T08:52:38.578Z,7.00
2023-11-29T08:55:06.190Z,8.00
2023-11-29T08:57:33.437Z,10.70
2023-11-29T09:00:00.850Z,11.02
2023-11-29T09:02:31.152Z,13.40
2023-11-29T09:04:59.090Z,10.57
2023-11-29T09:07:26.839Z,9.30
2023-11-29T09:09:56.238Z,9.68
2023-11-29T09:12:27.060Z,9.45
2023-11-29T09:14:57.605Z,6.45
2023-11-29T09:17:25.185Z,8.80
2023-11-29T09:19:54.890Z,8.05
2023-11-29T09:22:24.932Z,12.80
2023-11-29T09:24:52.074Z,10.88
2023-11-29T09:27:19.299Z,10.90
2023-11-29T09:29:46.988Z,7.82
2023-11-29T09:32:14.240Z,6.78
2023-11-29T09:34:41.456Z,8.57
2023-11-29T09:37:08.602Z,6.13
2023-11-29T09:39:35.689Z,7.72
2023-11-29T09:42:04.132Z,9.90
2023-11-29T09:44:31.709Z,6.10
2023-11-29T09:46:59.699Z,4.75
2023-11-29T09:49:29.419Z,7.15
2023-11-29T09:51:56.952Z,5.38
2023-11-29T09:54:25.819Z,5.28
2023-11-29T09:56:53.209Z,8.32
2023-11-29T09:59:23.040Z,8.98
2023-11-29T10:01:51.715Z,5.63
2023-11-29T10:04:19.101Z,8.35
2023-11-29T10:06:46.340Z,7.72
2023-11-29T10:09:14.291Z,9.25
2023-11-29T10:11:42.188Z,5.35
2023-11-29T10:14:09.655Z,6.70
2023-11-29T10:16:36.929Z,5.93
2023-11-29T10:19:05.006Z,5.95
2023-11-29T10:21:32.336Z,5.88
2023-11-29T10:23:59.658Z,4.32
2023-11-29T10:26:26.802Z,5.57
2023-11-29T10:28:55.112Z,6.18
2023-11-29T10:31:23.867Z,6.15
2023-11-29T10:33:51.665Z,4.75
2023-11-29T10:36:22.208Z,6.70
2023-11-29T10:38:52.432Z,7.97
2023-11-29T10:41:20.509Z,6.15
2023-11-29T10:43:50.960Z,5.15
2023-11-29T10:46:24.055Z,5.13
2023-11-29T10:48:54.684Z,5.18
2023-11-29T10:51:23.041Z,7.25
2023-11-29T10:53:51.064Z,6.65
2023-11-29T10:56:18.580Z,7.88
2023-11-29T10:58:47.917Z,6.45
2023-11-29T11:01:15.609Z,5.38
2023-11-29T11:03:49.363Z,4.90
2023-11-29T11:06:22.982Z,5.35
2023-11-29T11:08:50.765Z,7.20
2023-11-29T11:11:37.524Z,6.55
2023-11-29T11:14:06.217Z,7.20
2023-11-29T11:16:34.641Z,6.45
2023-11-29T11:19:03.326Z,7.20
2023-11-29T11:21:30.887Z,7.35
2023-11-29T11:24:01.466Z,8.52
2023-11-29T11:26:30.114Z,7.07
2023-11-29T11:29:00.624Z,9.98
2023-11-29T11:31:29.402Z,6.78
2023-11-29T11:33:56.585Z,5.43
2023-11-29T11:36:24.464Z,6.63
2023-11-29T11:38:51.853Z,5.13
2023-11-29T11:41:19.202Z,5.32
2023-11-29T11:43:46.998Z,3.08
2023-11-29T11:46:14.303Z,4.78
2023-11-29T11:48:41.517Z,6.75
2023-11-29T11:51:08.949Z,6.45
2023-11-29T11:53:42.799Z,6.45
2023-11-29T11:56:19.759Z,4.95
2023-11-29T11:58:47.391Z,4.38
2023-11-29T12:01:15.278Z,5.50
2023-11-29T12:03:42.730Z,5.32
2023-11-29T12:06:10.507Z,5.10
2023-11-29T12:08:38.476Z,4.97
2023-11-29T12:11:08.882Z,4.28
2023-11-29T12:13:36.094Z,5.72
2023-11-29T12:16:13.068Z,5.63
2023-11-29T12:18:41.009Z,6.72
2023-11-29T12:21:08.994Z,6.22
2023-11-29T12:23:38.287Z,6.25
2023-11-29T12:26:05.800Z,4.63
2023-11-29T12:28:34.079Z,7.28
2023-11-29T12:31:01.647Z,6.03
2023-11-29T12:33:28.863Z,3.17
2023-11-29T12:35:56.088Z,6.90
2023-11-29T12:38:23.345Z,5.47
2023-11-29T12:40:50.528Z,5.30
2023-11-29T12:43:19.095Z,4.50
2023-11-29T12:45:46.206Z,11.30
2023-11-29T12:48:13.498Z,10.98
2023-11-29T12:50:40.712Z,10.82
2023-11-29T12:53:08.211Z,10.63
2023-11-29T12:55:35.411Z,8.27
2023-11-29T12:58:07.056Z,5.93
2023-11-29T13:00:34.290Z,5.15
2023-11-29T13:03:01.876Z,4.85
2023-11-29T13:05:29.226Z,4.75
2023-11-29T13:07:56.428Z,3.67
2023-11-29T13:10:23.602Z,4.43
2023-11-29T13:12:50.826Z,4.65
2023-11-29T13:15:19.932Z,5.07
2023-11-29T13:17:47.169Z,6.28
2023-11-29T13:20:14.408Z,5.32
2023-11-29T13:22:42.534Z,3.20
2023-11-29T13:25:11.107Z,4.20
2023-11-29T13:27:38.265Z,5.57
2023-11-29T13:30:05.613Z,6.55
2023-11-29T13:32:32.836Z,3.53
2023-11-29T13:35:00.062Z,3.47
2023-11-29T13:37:27.211Z,3.08
2023-11-29T13:39:54.361Z,3.13
2023-11-29T13:42:21.507Z,4.30
2023-11-29T13:44:49.259Z,5.35
2023-11-29T13:47:16.539Z,4.13
2023-11-29T13:49:43.724Z,4.07
2023-11-29T13:52:19.876Z,2.67
2023-11-29T13:54:50.883Z,4.63
2023-11-29T13:57:18.019Z,3.88
2023-11-29T13:59:45.355Z,5.45
2023-11-29T14:02:17.957Z,4.65
2023-11-29T14:04:46.647Z,5.05
2023-11-29T14:07:14.084Z,4.88
2023-11-29T14:09:41.285Z,5.38
2023-11-29T14:12:08.633Z,2.08
2023-11-29T14:14:35.849Z,4.78
2023-11-29T14:17:03.052Z,2.85
2023-11-29T14:19:30.244Z,2.60
2023-11-29T14:21:57.382Z,3.38
2023-11-29T14:24:24.573Z,4.13
2023-11-29T14:26:54.342Z,5.43
2023-11-29T14:29:23.602Z,5.03
2023-11-29T14:31:51.823Z,3.10
2023-11-29T14:34:19.099Z,4.10
2023-11-29T14:36:48.657Z,4.00
2023-11-29T14:39:16.003Z,4.88
2023-11-29T14:41:44.593Z,2.88
2023-11-29T14:44:11.859Z,2.28
2023-11-29T14:46:39.098Z,4.95
2023-11-29T14:49:13.479Z,5.00
2023-11-29T14:51:44.392Z,4.43
2023-11-29T14:54:11.644Z,4.07
2023-11-29T14:56:39.050Z,5.07
2023-11-29T14:59:06.381Z,4.65
2023-11-29T15:01:33.528Z,5.18
2023-11-29T15:04:00.859Z,4.22
2023-11-29T15:06:28.058Z,4.82
2023-11-29T15:08:55.272Z,3.72
2023-11-29T15:11:22.469Z,4.63
2023-11-29T15:13:50.611Z,5.78
2023-11-29T15:16:18.004Z,5.50
2023-11-29T15:18:45.367Z,6.20
2023-11-29T15:21:12.679Z,8.52
2023-11-29T15:23:39.887Z,6.10
2023-11-29T15:26:07.258Z,7.25
2023-11-29T15:28:34.580Z,7.57
2023-11-29T15:31:01.787Z,6.55
2023-11-29T15:33:29.137Z,10.73
2023-11-29T15:35:58.727Z,8.98
2023-11-29T15:38:26.153Z,8.02
2023-11-29T15:40:53.305Z,8.95
2023-11-29T15:43:20.554Z,8.70
2023-11-29T15:45:48.500Z,8.35
2023-11-29T15:48:16.284Z,6.88
2023-11-29T15:50:43.746Z,6.25
2023-11-29T15:53:11.011Z,8.38
2023-11-29T15:55:39.578Z,11.48
2023-11-29T15:58:06.911Z,16.15
2023-11-29T16:00:34.098Z,15.07
2023-11-29T16:03:01.591Z,11.63
2023-11-29T16:05:28.897Z,12.43
2023-11-29T16:07:56.061Z,10.35
2023-11-29T16:10:24.065Z,13.75
2023-11-29T16:12:51.827Z,10.90
2023-11-29T16:15:19.575Z,9.93
2023-11-29T16:17:47.043Z,8.95
2023-11-29T16:20:14.237Z,8.77
2023-11-29T16:22:41.389Z,10.80
2023-11-29T16:25:08.953Z,10.68
2023-11-29T16:27:37.218Z,8.40
2023-11-29T16:30:06.072Z,9.27
2023-11-29T16:32:34.474Z,11.40
2023-11-29T16:35:02.108Z,11.43
2023-11-29T16:37:30.363Z,12.52
2023-11-29T16:39:58.494Z,11.95
2023-11-29T16:42:26.104Z,11.20
2023-11-29T16:44:53.781Z,12.32
2023-11-29T16:47:21.018Z,12.18
2023-11-29T16:49:48.174Z,11.77
2023-11-29T16:52:15.321Z,12.05
2023-11-29T16:54:42.620Z,11.68
2023-11-29T16:57:10.024Z,11.02
2023-11-29T16:59:37.357Z,13.13
2023-11-29T17:02:04.864Z,14.15
2023-11-29T17:04:32.141Z,15.15
2023-11-29T17:06:59.310Z,13.93
2023-11-29T17:09:26.533Z,15.98
2023-11-29T17:11:53.784Z,14.73
2023-11-29T17:14:21.016Z,11.50
2023-11-29T17:16:48.790Z,12.48
2023-11-29T17:19:16.041Z,15.07
2023-11-29T17:21:43.211Z,13.63
2023-11-29T17:24:10.460Z,14.88
2023-11-29T17:26:40.422Z,19.75
2023-11-29T17:29:07.697Z,14.88
2023-11-29T17:31:35.776Z,12.73
2023-11-29T17:34:02.924Z,13.25
2023-11-29T17:36:30.105Z,12.23
2023-11-29T17:38:57.314Z,12.45
2023-11-29T17:41:25.125Z,11.07
2023-11-29T17:43:52.288Z,10.90
2023-11-29T17:46:19.911Z,11.15
2023-11-29T17:48:47.315Z,11.75
2023-11-29T17:51:15.232Z,12.10
2023-11-29T17:53:42.468Z,10.55
2023-11-29T17:56:09.826Z,11.63
2023-11-29T17:58:37.118Z,14.10
2023-11-29T18:01:04.454Z,12.73
2023-11-29T18:03:31.725Z,17.98
2023-11-29T18:05:59.053Z,13.70
2023-11-29T18:08:26.222Z,13.32
2023-11-29T18:10:54.656Z,15.77
2023-11-29T18:13:23.763Z,13.93
2023-11-29T18:15:51.100Z,12.80
2023-11-29T18:18:18.403Z,9.55
2023-11-29T18:20:46.241Z,10.15
2023-11-29T18:23:13.488Z,9.90
2023-11-29T18:25:48.672Z,10.40
2023-11-29T18:28:23.833Z,11.15
2023-11-29T18:30:51.010Z,11.77
2023-11-29T18:33:18.454Z,14.23
2023-11-29T18:35:46.034Z,16.90
2023-11-29T18:38:13.336Z,17.50
2023-11-29T18:40:42.599Z,17.40
2023-11-29T18:43:09.956Z,16.50
2023-11-29T18:45:37.147Z,19.85
2023-11-29T18:48:04.584Z,16.00
2023-11-29T18:50:31.849Z,13.00
2023-11-29T18:52:58.994Z,12.70
2023-11-29T18:55:30.119Z,13.55
2023-11-29T18:57:57.593Z,12.13
2023-11-29T19:00:24.796Z,13.93
2023-11-29T19:02:52.410Z,12.10
2023-11-29T19:05:19.807Z,13.02
2023-11-29T19:07:46.976Z,11.45
2023-11-29T19:10:14.172Z,10.02
2023-11-29T19:12:41.353Z,15.40
2023-11-29T19:15:08.792Z,10.15
2023-11-29T19:17:36.009Z,11.45
2023-11-29T19:20:03.436Z,10.50
2023-11-29T19:22:30.701Z,13.75
2023-11-29T19:24:57.886Z,15.75
2023-11-29T19:27:25.093Z,14.32
2023-11-29T19:29:52.224Z,12.65
2023-11-29T19:32:19.410Z,13.38
2023-11-29T19:34:46.540Z,12.98
2023-11-29T19:37:13.943Z,15.45
2023-11-29T19:39:42.304Z,14.93
2023-11-29T19:42:09.627Z,15.18
2023-11-29T19:44:36.881Z,15.15
2023-11-29T19:47:10.635Z,16.90
2023-11-29T19:49:42.106Z,16.67
2023-11-29T19:52:09.466Z,16.02
2023-11-29T19:54:36.857Z,14.73
2023-11-29T19:57:04.274Z,18.38
2023-11-29T19:59:31.475Z,17.58
2023-11-29T20:01:58.729Z,17.60
2023-11-29T20:04:26.040Z,17.05
2023-11-29T20:06:53.325Z,17.13
2023-11-29T20:09:22.255Z,17.05
2023-11-29T20:11:50.160Z,18.05
2023-11-29T20:14:22.486Z,16.30
2023-11-29T20:16:56.043Z,17.20
2023-11-29T20:19:24.591Z,17.10
2023-11-29T20:21:51.814Z,20.15
2023-11-29T20:24:19.082Z,17.40
2023-11-29T20:26:46.288Z,17.48
2023-11-29T20:29:13.483Z,19.70
2023-11-29T20:31:40.739Z,16.45
2023-11-29T20:34:16.908Z,15.75
2023-11-29T20:36:48.571Z,14.07
2023-11-29T20:41:49.142Z,13.93
2023-11-29T20:44:16.759Z,14.48
2023-11-29T20:46:44.541Z,14.88
2023-11-29T20:49:11.763Z,12.73
2023-11-29T20:51:39.522Z,13.23
2023-11-29T20:54:06.826Z,18.00
2023-11-29T20:56:34.033Z,15.60
2023-11-29T20:59:01.212Z,16.73
2023-11-29T21:01:28.435Z,15.65
2023-11-29T21:03:56.883Z,15.07
2023-11-29T21:06:24.409Z,17.45
2023-11-29T21:08:52.122Z,17.38
2023-11-29T21:11:20.461Z,17.55
2023-11-29T21:13:47.718Z,17.35
2023-11-29T21:16:14.937Z,17.75
2023-11-29T21:18:42.384Z,17.25
2023-11-29T21:21:09.746Z,18.48
2023-11-29T21:23:36.908Z,17.85
2023-11-29T21:26:04.195Z,19.95
2023-11-29T21:28:31.464Z,20.17
2023-11-29T21:30:58.744Z,18.90
2023-11-29T21:33:26.010Z,17.45
2023-11-29T21:35:53.213Z,17.60
2023-11-29T21:38:20.451Z,15.52
2023-11-29T21:40:47.662Z,17.67
2023-11-29T21:43:16.947Z,15.48
2023-11-29T21:45:45.709Z,15.43
2023-11-29T21:48:13.431Z,13.93
2023-11-29T21:50:40.680Z,16.95
2023-11-29T21:53:08.964Z,14.57
2023-11-29T21:55:36.396Z,16.40
2023-11-29T21:58:04.130Z,17.63
2023-11-29T22:00:31.524Z,17.75
2023-11-29T22:02:58.775Z,17.25
2023-11-29T22:05:25.974Z,17.20
2023-11-29T22:07:53.212Z,14.40
2023-11-29T22:10:21.070Z,14.50
2023-11-29T22:12:48.306Z,15.57
2023-11-29T22:15:15.588Z,16.00
2023-11-29T22:17:42.941Z,14.35
2023-11-29T22:20:11.379Z,14.52
2023-11-29T22:22:39.199Z,15.23
2023-11-29T22:25:06.537Z,14.05
2023-11-29T22:27:33.880Z,18.50
2023-11-29T22:30:01.330Z,18.13
2023-11-29T22:32:28.488Z,15.27
2023-11-29T22:37:22.886Z,14.70
2023-11-29T22:39:50.071Z,16.30
2023-11-29T22:42:17.439Z,16.00
2023-11-29T22:44:46.278Z,15.40
2023-11-29T22:47:14.716Z,14.73
2023-11-29T22:49:41.928Z,15.88
2023-11-29T22:52:09.122Z,13.45
2023-11-29T22:54:36.396Z,15.75
2023-11-29T22:57:03.743Z,13.55
2023-11-29T22:59:30.906Z,17.08
2023-11-29T23:01:58.185Z,16.80
2023-11-29T23:04:25.516Z,13.70
2023-11-29T23:06:52.690Z,16.35
2023-11-29T23:09:19.980Z,13.32
2023-11-29T23:11:47.380Z,12.48
2023-11-29T23:14:14.592Z,12.27
2023-11-29T23:16:41.869Z,15.02
2023-11-29T23:19:09.031Z,12.30
2023-11-29T23:21:36.219Z,12.32
2023-11-29T23:24:03.468Z,13.07
2023-11-29T23:26:30.675Z,12.18
2023-11-29T23:28:57.853Z,11.20
2023-11-29T23:31:25.128Z,14.02
2023-11-29T23:33:52.448Z,13.02
2023-11-29T23:36:19.792Z,13.40
2023-11-29T23:38:47.118Z,11.23
2023-11-29T23:41:15.771Z,10.95
2023-11-29T23:43:43.000Z,12.88
2023-11-29T23:46:10.181Z,14.27
2023-11-29T23:48:37.449Z,15.20
2023-11-29T23:51:04.765Z,15.20
2023-11-29T23:53:31.968Z,13.57
2023-11-29T23:55:59.160Z,14.30
2023-11-29T23:58:26.331Z,14.35
